Time;durP1;ratioP1;P1;durP2;ratioP2;P2;SDS_P1;SDS_P2;PMS_P1;PMS_P2;Temp;Humidity;BMP_temperature;BMP_pressure;BME280_temperature;BME280_humidity;BME280_pressure;Samples;Min_cycle;Max_cycle;Signal;HPM_P1;HPM_P2
2022/07/08 00:02:03;;;;;;;9.80;1.88;;;;;;;21.15;46.70;103023.28;5076613;28;20045;-65
2022/07/08 00:04:29;;;;;;;5.75;1.42;;;;;;;20.90;46.96;103023.53;5068223;28;20117;-64
2022/07/08 00:06:54;;;;;;;5.78;1.40;;;;;;;20.19;48.68;103021.09;5066956;28;20052;-66
2022/07/08 00:09:20;;;;;;;10.35;1.77;;;;;;;20.47;48.52;103021.22;5067734;28;20052;-67
2022/07/08 00:11:45;;;;;;;8.68;1.73;;;;;;;20.00;49.55;103020.34;5068081;28;20054;-66
2022/07/08 00:14:11;;;;;;;4.90;1.20;;;;;;;20.64;47.50;103021.31;5066919;28;20040;-65
2022/07/08 00:16:40;;;;;;;12.23;1.88;;;;;;;20.65;47.17;103031.19;5067431;28;20107;-67
2022/07/08 00:19:16;;;;;;;7.55;1.48;;;;;;;20.49;47.43;103021.81;5067968;28;20123;-67
2022/07/08 00:21:43;;;;;;;7.38;2.25;;;;;;;20.47;47.38;103032.16;5071665;28;20122;-65
2022/07/08 00:24:10;;;;;;;8.15;1.15;;;;;;;20.25;47.91;103025.59;5069831;28;20549;-65
2022/07/08 00:26:35;;;;;;;6.78;1.20;;;;;;;20.01;48.72;103024.72;5070570;28;20492;-66
2022/07/08 00:29:01;;;;;;;11.52;1.85;;;;;;;20.13;48.29;103025.56;5067623;28;20041;-67
2022/07/08 00:31:26;;;;;;;9.15;1.63;;;;;;;20.11;48.75;103032.31;5067203;28;20028;-66
2022/07/08 00:33:51;;;;;;;9.88;1.90;;;;;;;20.05;48.52;103036.00;5067423;28;20488;-65
2022/07/08 00:36:17;;;;;;;5.28;1.20;;;;;;;19.93;49.17;103033.25;5068027;28;20032;-66
2022/07/08 00:38:42;;;;;;;10.05;1.50;;;;;;;19.91;48.64;103026.38;5066561;28;20496;-65
2022/07/08 00:41:08;;;;;;;12.55;1.88;;;;;;;20.38;47.46;103044.50;5067577;28;20044;-66
2022/07/08 00:43:36;;;;;;;5.88;1.52;;;;;;;19.59;48.96;103036.72;5067031;28;20031;-65
2022/07/08 00:46:02;;;;;;;6.47;1.75;;;;;;;19.71;49.16;103045.78;5067030;28;20029;-67
2022/07/08 00:48:28;;;;;;;6.90;1.90;;;;;;;19.89;48.24;103039.41;5080479;28;20071;-66
2022/07/08 00:50:54;;;;;;;4.97;2.08;;;;;;;19.64;49.19;103041.44;5087306;28;20047;-66
2022/07/08 00:53:19;;;;;;;5.82;1.27;;;;;;;19.78;48.73;103042.94;5086926;28;20044;-66
2022/07/08 00:55:45;;;;;;;13.93;1.40;;;;;;;20.00;48.27;103041.34;5087947;28;20070;-66
2022/07/08 00:58:12;;;;;;;10.52;2.22;;;;;;;20.07;47.96;103042.88;5087359;28;20466;-66
2022/07/08 01:00:37;;;;;;;9.35;3.00;;;;;;;19.59;49.23;103053.09;5087678;28;20476;-65
2022/07/08 01:03:03;;;;;;;7.20;1.65;;;;;;;20.00;47.96;103044.91;5068021;28;20055;-65
2022/07/08 01:05:28;;;;;;;12.00;2.10;;;;;;;19.95;48.12;103046.69;5066813;28;20045;-67
2022/07/08 01:07:54;;;;;;;7.07;2.40;;;;;;;20.71;46.30;103049.38;5066984;28;20036;-66
2022/07/08 01:10:19;;;;;;;6.53;2.05;;;;;;;20.60;46.74;103056.50;5067255;28;20127;-65
2022/07/08 01:12:44;;;;;;;11.30;1.98;;;;;;;20.49;46.84;103060.06;5066196;28;20036;-67
2022/07/08 01:15:10;;;;;;;13.80;1.98;;;;;;;20.09;47.83;103053.56;5067930;28;20074;-67
2022/07/08 01:17:45;;;;;;;8.68;1.65;;;;;;;20.65;46.35;103053.06;5066790;28;20283;-67
2022/07/08 01:20:12;;;;;;;6.13;1.88;;;;;;;20.74;46.27;103057.06;5066733;28;20037;-66
2022/07/08 01:22:37;;;;;;;4.18;1.20;;;;;;;20.62;46.72;103065.28;5078448;28;20407;-67
2022/07/08 01:25:04;;;;;;;4.82;1.00;;;;;;;20.46;46.75;103056.97;5087729;28;20035;-66
2022/07/08 01:27:30;;;;;;;6.93;1.23;;;;;;;20.11;47.73;103052.28;5071212;28;20119;-67
2022/07/08 01:29:57;;;;;;;18.60;2.10;;;;;;;20.64;46.53;103063.13;5070783;28;20044;-65
2022/07/08 01:32:22;;;;;;;10.95;2.17;;;;;;;19.99;48.18;103054.13;5070805;28;20028;-67
2022/07/08 01:34:47;;;;;;;9.07;1.85;;;;;;;19.81;48.96;103056.13;5070012;28;20032;-67
2022/07/08 01:37:13;;;;;;;6.35;1.85;;;;;;;20.38;47.45;103057.34;5070410;28;20102;-66
2022/07/08 01:39:38;;;;;;;8.88;1.83;;;;;;;20.46;47.07;103048.78;5070848;28;20040;-65
2022/07/08 01:42:04;;;;;;;4.10;0.73;;;;;;;20.63;46.58;103047.00;5070271;28;20079;-66
2022/07/08 01:44:29;;;;;;;6.47;1.60;;;;;;;20.26;47.44;103042.81;5070715;28;20128;-66
2022/07/08 01:46:55;;;;;;;4.60;1.40;;;;;;;20.46;46.97;103043.31;5070228;28;20036;-67
2022/07/08 01:49:20;;;;;;;5.30;1.10;;;;;;;20.45;47.05;103041.66;5089689;28;20040;-66
2022/07/08 01:51:46;;;;;;;6.70;2.08;;;;;;;20.74;46.64;103035.22;5090977;28;20125;-66
2022/07/08 01:54:11;;;;;;;11.38;2.35;;;;;;;20.59;46.99;103030.25;5090646;28;20163;-66
2022/07/08 01:56:37;;;;;;;7.10;2.95;;;;;;;20.26;47.60;103037.38;5090632;28;20047;-67
2022/07/08 01:59:02;;;;;;;3.92;1.40;;;;;;;19.99;48.41;103035.03;5090384;28;20036;-65
2022/07/08 02:01:28;;;;;;;11.57;1.95;;;;;;;19.69;49.33;103031.53;5083827;28;20044;-67
2022/07/08 02:03:53;;;;;;;8.93;1.67;;;;;;;19.93;48.65;103022.31;5070433;28;20033;-66
2022/07/08 02:06:18;;;;;;;10.80;1.20;;;;;;;20.13;48.05;103022.00;5070368;28;20032;-67
2022/07/08 02:08:44;;;;;;;11.45;2.95;;;;;;;19.92;48.08;103025.28;5069053;28;20039;-67
2022/07/08 02:13:54;;;;;;;8.27;1.55;;;;;;;20.17;47.71;103029.50;5070069;28;20048;-67
2022/07/08 02:16:19;;;;;;;15.98;2.40;;;;;;;20.20;47.74;103027.38;5069669;28;20500;-66
2022/07/08 02:18:44;;;;;;;7.95;1.70;;;;;;;20.36;47.08;103018.50;5069231;28;20020;-66
2022/07/08 02:21:10;;;;;;;7.32;1.60;;;;;;;20.09;48.11;103021.63;5070371;28;20469;-65
2022/07/08 02:23:35;;;;;;;10.20;2.42;;;;;;;20.32;47.44;103034.53;5069931;28;20056;-67
2022/07/08 02:26:02;;;;;;;6.72;1.67;;;;;;;20.35;47.13;103025.84;5069469;28;20435;-66
2022/07/08 02:28:27;;;;;;;5.97;1.52;;;;;;;20.24;47.60;103031.31;5070112;28;20371;-66
2022/07/08 02:30:52;;;;;;;5.28;1.08;;;;;;;20.47;47.48;103032.16;5069312;28;20024;-66
2022/07/08 02:33:18;;;;;;;6.95;1.55;;;;;;;20.44;47.14;103026.34;5069873;28;20024;-67
2022/07/08 02:35:43;;;;;;;6.85;1.25;;;;;;;20.42;47.35;103031.22;5069839;28;20032;-68
2022/07/08 02:38:09;;;;;;;5.10;1.50;;;;;;;20.11;48.05;103030.44;5067809;28;20041;-66
2022/07/08 02:40:34;;;;;;;10.07;1.80;;;;;;;19.69;49.18;103023.34;5069373;28;20024;-65
2022/07/08 02:42:59;;;;;;;7.75;1.45;;;;;;;20.13;48.29;103027.47;5069399;28;20051;-66
2022/07/08 02:45:25;;;;;;;9.82;1.77;;;;;;;20.15;48.31;103036.25;5069748;28;20040;-65
2022/07/08 02:47:50;;;;;;;7.10;1.73;;;;;;;19.96;49.03;103030.06;5076939;28;20369;-65
2022/07/08 02:50:15;;;;;;;6.72;1.52;;;;;;;20.14;48.75;103031.88;5089543;28;20290;-65
2022/07/08 02:52:41;;;;;;;6.75;1.38;;;;;;;19.87;49.15;103039.63;5089033;28;20032;-68
2022/07/08 02:55:07;;;;;;;10.40;1.73;;;;;;;19.79;49.46;103031.78;5089398;28;20028;-65
2022/07/08 02:57:32;;;;;;;9.68;1.58;;;;;;;19.98;49.11;103033.38;5089823;28;20131;-65
2022/07/08 02:59:57;;;;;;;16.73;3.22;;;;;;;19.88;49.15;103037.75;5089463;28;20454;-66
2022/07/08 03:02:23;;;;;;;10.65;1.77;;;;;;;19.90;49.14;103028.25;5075639;28;20047;-66
2022/07/08 03:04:48;;;;;;;11.43;1.35;;;;;;;19.70;49.98;103033.19;5068423;28;20037;-65
2022/07/08 03:07:14;;;;;;;6.60;1.40;;;;;;;19.82;49.77;103028.59;5069280;28;20040;-66
2022/07/08 03:09:39;;;;;;;13.05;2.45;;;;;;;19.63;50.39;103037.06;5068572;28;20401;-64
2022/07/08 03:12:05;;;;;;;9.07;1.35;;;;;;;19.98;49.82;103025.19;5069001;28;20028;-65
2022/07/08 03:14:30;;;;;;;9.15;2.72;;;;;;;20.33;48.94;103028.00;5068591;28;20490;-66
2022/07/08 03:16:55;;;;;;;5.30;1.65;;;;;;;20.36;48.21;103029.44;5068674;28;20047;-65
2022/07/08 03:19:21;;;;;;;7.85;1.38;;;;;;;20.50;47.86;103031.66;5068595;28;20032;-67
2022/07/08 03:21:46;;;;;;;5.18;1.60;;;;;;;20.48;48.54;103036.53;5073630;28;20656;-65
2022/07/08 03:24:12;;;;;;;5.40;1.02;;;;;;;20.50;47.92;103031.66;5088906;28;20400;-66
2022/07/08 03:26:37;;;;;;;8.63;1.83;;;;;;;20.56;48.21;103033.44;5089030;28;20039;-66
2022/07/08 03:29:03;;;;;;;7.78;1.45;;;;;;;20.43;48.74;103041.88;5088780;28;20093;-66
2022/07/08 03:31:28;;;;;;;10.27;2.85;;;;;;;20.48;48.41;103044.72;5088418;28;20044;-66
2022/07/08 03:33:54;;;;;;;8.52;1.30;;;;;;;20.50;48.51;103048.06;5089257;28;20187;-68
2022/07/08 03:36:19;;;;;;;6.13;1.30;;;;;;;20.54;48.24;103045.69;5084843;28;20040;-65
2022/07/08 03:38:45;;;;;;;5.55;1.83;;;;;;;20.64;48.51;103054.09;5067763;28;20040;-66
2022/07/08 03:41:19;;;;;;;8.23;1.40;;;;;;;20.53;49.24;103060.41;5068585;28;20040;-65
2022/07/08 03:43:45;;;;;;;8.70;1.80;;;;;;;20.63;48.70;103058.75;5068297;28;20114;-66
2022/07/08 03:46:10;;;;;;;15.20;1.50;;;;;;;20.77;48.29;103042.94;5067850;28;20483;-66
2022/07/08 03:48:36;;;;;;;14.25;1.60;;;;;;;20.72;48.25;103051.00;5081960;28;20032;-67
2022/07/08 03:51:02;;;;;;;12.52;2.00;;;;;;;20.58;48.45;103055.91;5087916;28;20108;-66
2022/07/08 03:53:27;;;;;;;8.18;1.50;;;;;;;20.42;48.96;103070.25;5088077;28;20027;-65
2022/07/08 03:55:54;;;;;;;10.57;2.05;;;;;;;20.58;48.88;103072.28;5088645;28;20036;-65
2022/07/08 03:58:20;;;;;;;5.55;2.03;;;;;;;20.59;49.00;103070.41;5087880;28;20464;-66
2022/07/08 04:00:45;;;;;;;8.73;2.40;;;;;;;20.68;48.88;103064.31;5087139;28;20040;-65
2022/07/08 04:03:11;;;;;;;11.48;1.67;;;;;;;20.63;49.20;103068.84;5067185;28;20033;-65
2022/07/08 04:05:36;;;;;;;8.77;2.03;;;;;;;20.70;49.01;103075.00;5067404;28;20036;-65
2022/07/08 04:08:02;;;;;;;9.40;2.22;;;;;;;20.69;49.10;103074.22;5067112;28;20048;-65
2022/07/08 04:10:28;;;;;;;12.25;1.70;;;;;;;20.74;49.16;103078.94;5067410;28;20043;-66
2022/07/08 04:12:53;;;;;;;12.88;2.35;;;;;;;20.76;49.05;103074.06;5066966;28;20052;-66
2022/07/08 04:15:19;;;;;;;8.25;2.20;;;;;;;20.73;49.27;103083.59;5068379;28;20024;-65
2022/07/08 04:17:44;;;;;;;7.03;2.10;;;;;;;20.81;48.98;103079.66;5067444;28;20724;-65
2022/07/08 04:20:10;;;;;;;7.25;2.92;;;;;;;20.70;49.80;103089.53;5067312;28;20752;-65
2022/07/08 04:22:35;;;;;;;6.57;1.77;;;;;;;20.70;49.82;103088.69;5051413;28;20091;-65
2022/07/08 04:25:02;;;;;;;5.00;2.17;;;;;;;20.90;49.21;103092.72;5046937;28;20095;-66
2022/07/08 04:27:27;;;;;;;5.47;1.90;;;;;;;20.91;49.46;103099.03;5048048;28;20037;-66
2022/07/08 04:29:53;;;;;;;21.85;4.72;;;;;;;21.02;49.27;103097.38;5048003;28;20040;-66
2022/07/08 04:32:18;;;;;;;6.35;2.30;;;;;;;20.97;49.97;103098.88;5047008;28;20041;-65
2022/07/08 04:34:45;;;;;;;8.20;1.80;;;;;;;21.11;48.99;103104.16;5072988;28;20538;-65
2022/07/08 04:37:10;;;;;;;7.82;1.88;;;;;;;21.23;49.00;103096.75;5076427;28;20033;-67
2022/07/08 04:39:36;;;;;;;7.63;1.90;;;;;;;21.07;48.83;103098.31;5049542;28;20025;-66
2022/07/08 04:42:01;;;;;;;6.28;2.47;;;;;;;21.20;48.96;103097.22;5067538;28;20440;-66
2022/07/08 04:44:27;;;;;;;10.57;2.13;;;;;;;21.15;49.12;103103.41;5067299;28;20040;-65
2022/07/08 04:46:52;;;;;;;9.73;2.38;;;;;;;21.21;48.93;103105.19;5066908;28;20032;-65
2022/07/08 04:49:17;;;;;;;13.45;2.20;;;;;;;21.35;48.71;103106.56;5086780;28;20040;-66
2022/07/08 04:51:43;;;;;;;5.40;1.80;;;;;;;21.44;48.69;103099.66;5087036;28;20403;-65
2022/07/08 04:54:08;;;;;;;9.95;2.17;;;;;;;21.48;48.45;103098.09;5087713;28;20381;-66
2022/07/08 04:56:34;;;;;;;9.95;1.80;;;;;;;21.46;49.42;103108.44;5087537;28;20040;-65
2022/07/08 04:58:59;;;;;;;8.90;2.33;;;;;;;21.43;48.91;103105.38;5087094;28;20040;-66
2022/07/08 05:01:24;;;;;;;6.57;1.77;;;;;;;21.29;49.36;103107.53;5084924;28;20036;-65
2022/07/08 05:03:50;;;;;;;16.17;2.47;;;;;;;21.37;49.86;103109.91;5071378;28;20047;-67
2022/07/08 05:06:15;;;;;;;10.02;2.20;;;;;;;21.42;49.42;103104.56;5071293;28;20040;-67
2022/07/08 05:08:41;;;;;;;8.32;1.77;;;;;;;21.48;49.02;103102.75;5071229;28;20044;-66
2022/07/08 05:11:06;;;;;;;9.73;2.10;;;;;;;21.58;49.17;103101.03;5070885;28;20033;-65
2022/07/08 05:13:31;;;;;;;5.75;2.47;;;;;;;21.52;49.87;103103.94;5070662;28;20056;-65
2022/07/08 05:15:58;;;;;;;10.20;2.10;;;;;;;21.69;49.39;103116.59;5080022;28;20039;-66
2022/07/08 05:18:23;;;;;;;16.45;2.38;;;;;;;21.45;50.54;103108.69;5088954;28;20031;-66
2022/07/08 05:20:49;;;;;;;7.00;1.85;;;;;;;21.55;50.19;103107.00;5069367;28;20040;-66
2022/07/08 05:23:14;;;;;;;7.00;1.67;;;;;;;21.42;50.78;103107.28;5070547;28;20123;-67
2022/07/08 05:25:40;;;;;;;10.05;2.05;;;;;;;21.39;50.71;103109.66;5065177;28;20032;-67
2022/07/08 05:28:05;;;;;;;12.30;2.10;;;;;;;21.51;51.05;103113.19;5067290;28;20488;-66
2022/07/08 05:30:31;;;;;;;14.13;2.53;;;;;;;21.35;51.66;103119.41;5068903;28;20033;-67
2022/07/08 05:32:56;;;;;;;7.43;1.83;;;;;;;21.50;51.18;103115.09;5068176;28;20060;-65
2022/07/08 05:35:22;;;;;;;10.80;2.08;;;;;;;21.81;51.12;103111.94;5068823;28;20508;-66
2022/07/08 05:37:47;;;;;;;10.77;2.30;;;;;;;21.34;51.66;103110.41;5071549;28;20032;-66
2022/07/08 05:40:13;;;;;;;13.25;1.83;;;;;;;21.71;50.71;103108.13;5070220;28;20144;-67
2022/07/08 05:42:38;;;;;;;11.35;2.38;;;;;;;21.77;50.67;103112.63;5070692;28;20055;-67
2022/07/08 05:45:05;;;;;;;10.82;2.35;;;;;;;22.16;49.71;103116.38;5067537;28;20024;-66
2022/07/08 05:47:31;;;;;;;7.30;2.60;;;;;;;22.09;50.29;103112.97;5072549;28;20040;-68
2022/07/08 05:49:56;;;;;;;8.93;2.15;;;;;;;21.81;50.39;103117.41;5070072;28;20258;-67
2022/07/08 05:52:22;;;;;;;10.60;1.88;;;;;;;22.39;49.67;103114.31;5069375;28;20037;-66
2022/07/08 05:54:48;;;;;;;10.30;1.77;;;;;;;22.13;50.07;103114.97;5068038;28;20401;-66
2022/07/08 05:57:14;;;;;;;11.52;2.00;;;;;;;21.98;50.54;103122.91;5067211;28;20025;-67
2022/07/08 05:59:41;;;;;;;8.23;1.42;;;;;;;21.76;50.86;103125.47;5068867;28;20055;-66
2022/07/08 06:02:06;;;;;;;18.67;3.00;;;;;;;22.04;50.47;103130.16;5069876;28;20032;-67
2022/07/08 06:04:32;;;;;;;13.48;2.38;;;;;;;22.19;50.40;103113.16;5069168;28;20040;-66
2022/07/08 06:06:57;;;;;;;8.73;2.10;;;;;;;22.29;49.60;103114.16;5066110;28;20028;-67
2022/07/08 06:09:23;;;;;;;7.72;2.13;;;;;;;22.42;49.51;103115.75;5069880;28;20029;-67
2022/07/08 06:11:49;;;;;;;11.43;2.85;;;;;;;22.53;49.77;103109.34;5068792;28;20032;-67
2022/07/08 06:14:14;;;;;;;12.35;2.10;;;;;;;22.51;49.68;103109.59;5069243;28;20040;-66
2022/07/08 06:16:40;;;;;;;11.45;1.90;;;;;;;22.64;49.32;103113.94;5071732;28;20024;-66
2022/07/08 06:19:05;;;;;;;8.85;2.28;;;;;;;22.35;50.18;103120.53;5069062;28;20036;-67
2022/07/08 06:21:31;;;;;;;9.48;2.08;;;;;;;22.65;49.95;103119.19;5050771;28;20043;-65
2022/07/08 06:23:56;;;;;;;9.27;2.00;;;;;;;22.90;49.70;103132.44;5069129;28;20040;-67
2022/07/08 06:26:22;;;;;;;9.80;2.05;;;;;;;22.53;50.12;103134.84;5047826;28;20032;-66
2022/07/08 06:28:47;;;;;;;7.88;2.25;;;;;;;22.02;51.84;103137.78;5066907;28;20020;-66
2022/07/08 06:31:13;;;;;;;19.30;2.13;;;;;;;21.92;52.16;103145.78;5063274;28;20049;-66
2022/07/08 06:33:38;;;;;;;9.98;1.85;;;;;;;21.70;52.44;103147.50;5063517;28;20047;-67
2022/07/08 06:36:04;;;;;;;6.45;2.03;;;;;;;21.70;52.42;103133.81;5063643;28;20036;-67
2022/07/08 06:38:29;;;;;;;6.65;2.53;;;;;;;22.40;50.99;103142.56;5062663;28;20059;-67
2022/07/08 06:40:55;;;;;;;5.80;1.55;;;;;;;22.54;50.54;103138.41;5063482;28;20043;-66
2022/07/08 06:43:20;;;;;;;9.95;2.08;;;;;;;22.50;51.09;103135.34;5060538;28;20032;-67
2022/07/08 06:45:46;;;;;;;11.55;2.30;;;;;;;22.62;50.79;103138.03;5078426;28;20028;-66
2022/07/08 06:48:12;;;;;;;12.05;2.85;;;;;;;22.56;51.48;103141.75;5070803;28;20040;-67
2022/07/08 06:50:37;;;;;;;15.65;1.92;;;;;;;22.75;51.23;103134.94;5067965;28;20024;-66
2022/07/08 06:53:02;;;;;;;8.43;1.63;;;;;;;22.96;51.37;103144.31;5068085;28;20040;-66
2022/07/08 06:55:28;;;;;;;10.95;1.60;;;;;;;23.24;49.84;103149.66;5068403;28;20527;-67
2022/07/08 06:57:53;;;;;;;11.80;2.15;;;;;;;22.54;51.74;103152.13;5067402;28;20028;-66
2022/07/08 07:00:21;;;;;;;8.27;2.28;;;;;;;22.67;51.50;103152.66;5068867;28;20032;-65
2022/07/08 07:02:46;;;;;;;9.20;1.73;;;;;;;22.90;51.29;103151.63;5068951;28;20094;-65
2022/07/08 07:05:13;;;;;;;14.35;2.38;;;;;;;23.03;50.18;103140.31;5067563;28;20045;-66
2022/07/08 07:07:39;;;;;;;11.90;2.22;;;;;;;23.22;49.68;103154.56;5065515;28;20028;-66
2022/07/08 07:10:05;;;;;;;13.43;1.73;;;;;;;23.42;49.88;103154.88;5067371;28;20033;-64
2022/07/08 07:12:31;;;;;;;8.73;1.85;;;;;;;23.55;49.17;103146.25;5067609;28;20063;-66
2022/07/08 07:14:56;;;;;;;7.22;2.75;;;;;;;23.27;50.39;103144.47;5067573;28;20488;-64
2022/07/08 07:17:22;;;;;;;26.52;2.85;;;;;;;23.28;50.53;103154.38;5069655;28;20051;-65
2022/07/08 07:19:48;;;;;;;8.43;1.80;;;;;;;23.30;50.55;103154.13;5066814;28;20429;-66
2022/07/08 07:22:16;;;;;;;7.90;2.00;;;;;;;23.40;50.58;103157.03;5067299;28;20377;-67
2022/07/08 07:24:41;;;;;;;13.80;1.90;;;;;;;23.88;49.19;103157.06;5066577;28;20408;-65
2022/07/08 07:27:07;;;;;;;10.90;2.05;;;;;;;23.40;49.69;103148.81;5067181;28;20078;-66
2022/07/08 07:29:33;;;;;;;12.20;2.65;;;;;;;23.45;49.73;103155.19;5066553;28;20041;-66
2022/07/08 07:31:58;;;;;;;14.57;2.30;;;;;;;23.56;49.62;103156.16;5066247;28;20539;-67
2022/07/08 07:34:23;;;;;;;21.58;2.75;;;;;;;22.86;51.12;103161.44;5066298;28;20058;-66
2022/07/08 07:36:49;;;;;;;8.65;2.20;;;;;;;23.41;50.36;103153.19;5066338;28;20082;-66
2022/07/08 07:39:14;;;;;;;11.60;2.28;;;;;;;23.69;49.86;103154.91;5066074;28;20082;-65
2022/07/08 07:41:40;;;;;;;6.82;1.83;;;;;;;24.37;48.26;103149.63;5066953;28;20322;-65
2022/07/08 07:44:06;;;;;;;10.52;2.28;;;;;;;23.71;49.64;103156.31;5064895;28;20562;-67
2022/07/08 07:46:32;;;;;;;11.60;1.98;;;;;;;23.79;49.22;103152.28;5063168;28;20037;-66
2022/07/08 07:48:57;;;;;;;16.02;3.22;;;;;;;23.61;49.80;103149.88;5063833;28;20494;-66
2022/07/08 07:51:23;;;;;;;14.93;2.55;;;;;;;24.58;48.38;103145.13;5063896;28;20260;-66
2022/07/08 07:53:49;;;;;;;13.82;2.90;;;;;;;24.36;47.41;103147.97;5062318;28;20041;-66
2022/07/08 07:56:14;;;;;;;16.48;2.40;;;;;;;24.46;47.45;103145.31;5065694;28;20107;-67
2022/07/08 07:58:40;;;;;;;7.60;1.98;;;;;;;24.23;48.70;103151.16;5046141;28;20075;-65
2022/07/08 08:01:06;;;;;;;9.85;2.42;;;;;;;24.14;48.18;103149.94;5065871;28;20068;-66
2022/07/08 08:03:32;;;;;;;13.68;3.97;;;;;;;24.72;47.31;103157.34;5066319;28;20507;-67
2022/07/08 08:05:58;;;;;;;13.20;3.03;;;;;;;24.08;48.39;103156.47;5065233;28;20047;-66
2022/07/08 08:08:24;;;;;;;15.52;2.28;;;;;;;24.74;46.79;103161.53;5066206;28;20021;-68
2022/07/08 08:10:51;;;;;;;8.32;2.10;;;;;;;24.29;47.53;103152.84;5065695;28;20089;-67
2022/07/08 08:13:16;;;;;;;16.75;2.45;;;;;;;23.99;48.35;103155.25;5065416;28;20036;-66
2022/07/08 08:15:41;;;;;;;6.38;2.38;;;;;;;24.46;47.68;103166.47;5068687;28;20043;-66
2022/07/08 08:18:07;;;;;;;8.73;2.20;;;;;;;24.72;47.35;103157.34;5066470;28;20384;-67
2022/07/08 08:20:32;;;;;;;10.43;2.15;;;;;;;25.11;45.94;103150.47;5065908;28;20036;-65
2022/07/08 08:22:58;;;;;;;10.10;2.20;;;;;;;24.68;46.05;103156.19;5065500;28;20136;-67
2022/07/08 08:25:24;;;;;;;13.38;2.25;;;;;;;25.01;46.33;103159.50;5063212;28;20119;-67
2022/07/08 08:27:49;;;;;;;9.73;1.67;;;;;;;24.70;46.78;103165.03;5063103;28;20039;-68
2022/07/08 08:30:16;;;;;;;8.20;1.75;;;;;;;25.36;45.56;103160.78;5065763;28;20036;-66
2022/07/08 08:32:42;;;;;;;11.25;1.80;;;;;;;25.63;45.22;103154.03;5065937;28;20032;-67
2022/07/08 08:35:09;;;;;;;5.68;1.73;;;;;;;25.40;45.52;103165.53;5064236;28;20055;-67
2022/07/08 08:37:34;;;;;;;15.93;1.90;;;;;;;25.57;44.78;103157.06;5064349;28;20043;-67
2022/07/08 08:40:05;;;;;;;6.10;1.35;;;;;;;24.90;45.79;103165.22;5065245;28;20032;-67
2022/07/08 08:42:31;;;;;;;;;;;;;;;24.79;46.59;103158.78;5064379;28;20071;-66
2022/07/08 08:44:58;;;;;;;9.90;1.80;;;;;;;25.46;45.36;103158.09;5064548;28;19951;-68
2022/07/08 08:47:27;;;;;;;15.30;1.90;;;;;;;24.99;46.28;103160.84;5064922;28;20090;-67
2022/07/08 08:49:55;;;;;;;11.50;2.60;;;;;;;26.04;44.00;103166.03;5066207;28;20033;-66
2022/07/08 08:52:23;;;;;;;11.00;2.00;;;;;;;25.59;44.64;103169.44;5066305;28;20450;-66
2022/07/08 08:54:49;;;;;;;10.30;2.67;;;;;;;25.85;44.52;103162.94;5064593;28;20059;-66
2022/07/08 08:57:16;;;;;;;9.98;2.17;;;;;;;25.57;44.89;103162.59;5064058;28;20024;-67
2022/07/08 08:59:43;;;;;;;8.27;1.40;;;;;;;25.54;44.83;103155.69;5066423;28;20044;-67
2022/07/08 09:02:11;;;;;;;10.50;2.22;;;;;;;25.35;45.82;103154.47;5064979;28;20666;-66
2022/07/08 09:04:37;;;;;;;6.70;1.52;;;;;;;25.36;44.99;103155.28;5068255;28;20057;-65
2022/07/08 09:07:03;;;;;;;14.77;2.58;;;;;;;25.28;44.64;103157.44;5062784;28;20051;-67
2022/07/08 09:09:29;;;;;;;10.02;2.30;;;;;;;25.55;44.37;103151.81;5061488;28;20077;-67
2022/07/08 09:11:54;;;;;;;11.23;2.13;;;;;;;25.88;43.99;103158.81;5059899;28;20177;-65
2022/07/08 09:14:22;;;;;;;5.68;1.33;;;;;;;25.78;44.15;103154.13;5058328;28;20041;-66
2022/07/08 09:17:08;;;;;;;14.20;1.98;;;;;;;25.82;43.50;103154.41;5060319;28;20161;-65
2022/07/08 09:19:34;;;;;;;10.57;1.98;;;;;;;25.98;43.73;103156.09;5040081;28;20072;-66
2022/07/08 09:22:00;;;;;;;6.38;1.73;;;;;;;26.06;43.67;103152.84;5062318;28;20051;-66
2022/07/08 09:24:27;;;;;;;11.65;2.15;;;;;;;25.29;43.87;103155.53;5043594;28;20040;-66
2022/07/08 09:26:56;;;;;;;7.97;1.77;;;;;;;26.03;42.90;103161.59;5062296;28;20193;-66
2022/07/08 09:29:22;;;;;;;8.20;1.88;;;;;;;26.13;43.25;103158.91;5060638;28;20040;-67
2022/07/08 09:31:48;;;;;;;7.13;1.55;;;;;;;26.30;42.60;103159.47;5064464;28;20033;-68
2022/07/08 09:34:16;;;;;;;8.95;2.00;;;;;;;26.22;43.50;103156.44;5063803;28;20040;-66
2022/07/08 09:36:45;;;;;;;10.85;2.08;;;;;;;25.62;43.79;103168.94;5064329;28;20283;-66
2022/07/08 09:39:25;;;;;;;8.55;1.95;;;;;;;26.11;42.72;103166.63;5064363;28;20063;-66
2022/07/08 09:41:51;;;;;;;4.55;1.42;;;;;;;25.58;44.02;103178.00;5063900;28;20044;-65
2022/07/08 09:44:19;;;;;;;6.65;1.65;;;;;;;25.68;43.52;103167.03;5064204;28;20040;-65
2022/07/08 09:46:46;;;;;;;8.38;1.80;;;;;;;26.03;43.51;103178.13;5064647;28;20036;-66
2022/07/08 09:49:32;;;;;;;11.52;1.92;;;;;;;25.47;44.54;103162.53;5064490;28;20036;-66
2022/07/08 09:51:59;;;;;;;6.70;1.77;;;;;;;25.62;44.46;103174.44;5066319;28;20491;-67
2022/07/08 09:54:25;;;;;;;8.18;1.48;;;;;;;25.93;43.34;103162.41;5065346;28;20043;-65
2022/07/08 09:57:02;;;;;;;8.05;1.90;;;;;;;26.40;42.37;103176.03;5067414;28;20037;-66
2022/07/08 09:59:28;;;;;;;9.90;2.00;;;;;;;26.78;42.44;103158.94;5069373;28;20128;-67
2022/07/08 10:01:54;;;;;;;12.32;1.85;;;;;;;26.62;42.97;103156.44;5070494;28;20067;-66
2022/07/08 10:04:20;;;;;;;13.15;2.22;;;;;;;26.31;43.21;103172.16;5065860;28;20124;-66
2022/07/08 10:06:45;;;;;;;8.88;1.67;;;;;;;27.00;41.68;103164.16;5066985;28;20418;-67
2022/07/08 10:09:11;;;;;;;9.80;1.95;;;;;;;26.33;42.25;103155.34;5067767;28;20045;-68
2022/07/08 10:11:38;;;;;;;7.53;1.77;;;;;;;26.46;42.77;103155.63;5067535;28;20036;-68
2022/07/08 10:14:05;;;;;;;10.60;2.00;;;;;;;26.91;41.13;103158.38;5067840;28;20047;-67
2022/07/08 10:16:33;;;;;;;10.88;2.47;;;;;;;26.75;41.73;103158.69;5069019;28;20040;-67
2022/07/08 10:18:59;;;;;;;19.48;2.20;;;;;;;26.98;41.61;103160.00;5047860;28;20044;-67
2022/07/08 10:21:28;;;;;;;5.45;1.35;;;;;;;27.29;40.69;103158.81;5068089;28;20056;-68
2022/07/08 10:23:54;;;;;;;10.18;2.03;;;;;;;26.76;40.69;103155.66;5067924;28;20327;-67
2022/07/08 10:26:24;;;;;;;4.80;1.63;;;;;;;27.00;40.28;103172.44;5067000;28;20504;-67
2022/07/08 10:29:01;;;;;;;7.35;2.20;;;;;;;26.40;41.37;103166.91;5065972;28;20553;-67
2022/07/08 10:31:29;;;;;;;6.72;1.67;;;;;;;26.25;42.11;103158.63;5067021;28;20029;-66
2022/07/08 10:34:01;;;;;;;8.68;1.65;;;;;;;26.31;41.79;103154.78;5063623;28;20099;-66
2022/07/08 10:36:27;;;;;;;8.90;2.38;;;;;;;26.77;41.25;103160.03;5062328;28;20040;-67
2022/07/08 10:38:55;;;;;;;5.80;1.85;;;;;;;27.02;41.08;103163.88;5065723;28;20037;-67
2022/07/08 10:41:23;;;;;;;7.93;1.77;;;;;;;27.71;39.81;103168.34;5067091;28;20047;-67
2022/07/08 10:44:00;;;;;;;3.63;1.52;;;;;;;27.23;40.35;103165.47;5068098;28;20507;-67
2022/07/08 10:46:26;;;;;;;9.10;1.92;;;;;;;26.87;40.07;103161.97;5066257;28;20033;-67
2022/07/08 10:49:02;;;;;;;8.35;1.83;;;;;;;26.99;40.52;103161.69;5066803;28;20027;-68
2022/07/08 10:51:28;;;;;;;7.47;1.83;;;;;;;27.33;40.35;103165.47;5067164;28;20025;-67
2022/07/08 10:53:59;;;;;;;6.85;2.00;;;;;;;26.40;41.64;103156.72;5065194;28;20033;-67
2022/07/08 10:56:52;;;;;;;7.82;1.80;;;;;;;26.46;41.73;103147.34;5066575;28;20071;-67
2022/07/08 10:59:28;;;;;;;16.25;2.22;;;;;;;25.86;42.65;103158.25;5064532;28;20199;-66
2022/07/08 11:02:09;;;;;;;5.88;1.85;;;;;;;26.56;42.32;103161.13;5069149;28;20059;-65
2022/07/08 11:04:34;;;;;;;8.30;1.80;;;;;;;26.96;41.18;103157.53;5065434;28;20578;-68
2022/07/08 11:07:25;;;;;;;6.97;1.67;;;;;;;26.99;41.69;103167.22;5068085;28;20123;-67
2022/07/08 11:10:11;;;;;;;7.38;1.98;;;;;;;26.87;41.67;103162.78;5071236;28;20044;-68
2022/07/08 11:12:39;;;;;;;4.47;2.33;;;;;;;27.43;40.15;103154.38;5089660;28;20504;-68
2022/07/08 11:15:23;;;;;;;6.20;1.95;;;;;;;27.04;41.43;103156.13;5088832;28;20040;-68
2022/07/08 11:17:50;;;;;;;6.53;2.30;;;;;;;27.19;41.57;103156.09;5061588;28;20051;-68
2022/07/08 11:20:18;;;;;;;6.22;1.90;;;;;;;27.62;39.51;103161.75;5068312;28;20047;-67
2022/07/08 11:22:45;;;;;;;8.63;1.80;;;;;;;27.00;41.21;103155.03;5068776;28;20392;-69